sensor_id;sensor_type;location;lat;lon;timestamp;P1;durP1;ratioP1;P2;durP2;ratioP2
15096;SDS011;7649;52.084;7.478;2023-07-31T00:01:31;2.20;;;1.90;;
15096;SDS011;7649;52.084;7.478;2023-07-31T00:04:00;2.00;;;1.90;;
15096;SDS011;7649;52.084;7.478;2023-07-31T00:06:28;2.20;;;2.00;;
15096;SDS011;7649;52.084;7.478;2023-07-31T00:08:56;3.00;;;2.10;;
15096;SDS011;7649;52.084;7.478;2023-07-31T00:11:25;1.97;;;1.87;;
15096;SDS011;7649;52.084;7.478;2023-07-31T00:13:53;2.27;;;2.03;;
15096;SDS011;7649;52.084;7.478;2023-07-31T00:16:21;1.87;;;1.77;;
15096;SDS011;7649;52.084;7.478;2023-07-31T00:18:51;2.47;;;1.90;;
15096;SDS011;7649;52.084;7.478;2023-07-31T00:21:20;1.80;;;1.70;;
15096;SDS011;7649;52.084;7.478;2023-07-31T00:23:48;2.00;;;1.80;;
15096;SDS011;7649;52.084;7.478;2023-07-31T00:26:16;3.10;;;1.80;;
15096;SDS011;7649;52.084;7.478;2023-07-31T00:28:45;2.30;;;1.70;;
15096;SDS011;7649;52.084;7.478;2023-07-31T00:31:13;2.17;;;1.80;;
15096;SDS011;7649;52.084;7.478;2023-07-31T00:33:42;2.03;;;1.67;;
15096;SDS011;7649;52.084;7.478;2023-07-31T00:36:11;1.97;;;1.87;;
15096;SDS011;7649;52.084;7.478;2023-07-31T00:38:39;2.20;;;2.10;;
15096;SDS011;7649;52.084;7.478;2023-07-31T00:41:08;2.60;;;1.80;;
15096;SDS011;7649;52.084;7.478;2023-07-31T00:43:36;2.00;;;1.90;;
15096;SDS011;7649;52.084;7.478;2023-07-31T00:46:05;1.90;;;1.80;;
15096;SDS011;7649;52.084;7.478;2023-07-31T00:48:34;2.60;;;1.67;;
15096;SDS011;7649;52.084;7.478;2023-07-31T00:51:03;2.10;;;1.83;;
15096;SDS011;7649;52.084;7.478;2023-07-31T00:53:32;1.93;;;1.83;;
15096;SDS011;7649;52.084;7.478;2023-07-31T00:56:01;2.97;;;2.17;;
15096;SDS011;7649;52.084;7.478;2023-07-31T00:58:29;4.90;;;2.00;;
15096;SDS011;7649;52.084;7.478;2023-07-31T01:00:58;2.70;;;1.73;;
15096;SDS011;7649;52.084;7.478;2023-07-31T01:03:26;2.10;;;2.00;;
15096;SDS011;7649;52.084;7.478;2023-07-31T01:05:57;2.17;;;1.97;;
15096;SDS011;7649;52.084;7.478;2023-07-31T01:08:31;2.00;;;1.90;;
15096;SDS011;7649;52.084;7.478;2023-07-31T01:11:04;1.63;;;1.53;;
15096;SDS011;7649;52.084;7.478;2023-07-31T01:13:35;1.63;;;1.53;;
15096;SDS011;7649;52.084;7.478;2023-07-31T01:16:04;2.30;;;2.10;;
15096;SDS011;7649;52.084;7.478;2023-07-31T01:18:32;1.67;;;1.57;;
15096;SDS011;7649;52.084;7.478;2023-07-31T01:21:03;1.80;;;1.70;;
15096;SDS011;7649;52.084;7.478;2023-07-31T01:23:35;2.77;;;1.93;;
15096;SDS011;7649;52.084;7.478;2023-07-31T01:26:10;1.93;;;1.67;;
15096;SDS011;7649;52.084;7.478;2023-07-31T01:28:44;1.90;;;1.80;;
15096;SDS011;7649;52.084;7.478;2023-07-31T01:31:16;1.40;;;1.40;;
15096;SDS011;7649;52.084;7.478;2023-07-31T01:33:44;2.53;;;1.60;;
15096;SDS011;7649;52.084;7.478;2023-07-31T01:36:13;1.60;;;1.50;;
15096;SDS011;7649;52.084;7.478;2023-07-31T01:38:42;2.53;;;1.73;;
15096;SDS011;7649;52.084;7.478;2023-07-31T01:41:11;1.70;;;1.60;;
15096;SDS011;7649;52.084;7.478;2023-07-31T01:43:40;2.80;;;1.50;;
15096;SDS011;7649;52.084;7.478;2023-07-31T01:46:09;1.33;;;1.23;;
15096;SDS011;7649;52.084;7.478;2023-07-31T01:48:37;1.80;;;1.53;;
15096;SDS011;7649;52.084;7.478;2023-07-31T01:51:05;1.40;;;1.30;;
15096;SDS011;7649;52.084;7.478;2023-07-31T01:53:34;2.50;;;1.03;;
15096;SDS011;7649;52.084;7.478;2023-07-31T01:56:02;1.47;;;1.30;;
15096;SDS011;7649;52.084;7.478;2023-07-31T01:58:32;1.37;;;1.27;;
15096;SDS011;7649;52.084;7.478;2023-07-31T02:01:00;2.13;;;1.40;;
15096;SDS011;7649;52.084;7.478;2023-07-31T02:03:28;3.07;;;1.43;;
15096;SDS011;7649;52.084;7.478;2023-07-31T02:05:57;1.40;;;1.30;;
15096;SDS011;7649;52.084;7.478;2023-07-31T02:08:25;0.97;;;0.97;;
15096;SDS011;7649;52.084;7.478;2023-07-31T02:10:56;1.10;;;1.00;;
15096;SDS011;7649;52.084;7.478;2023-07-31T02:13:24;3.60;;;0.90;;
15096;SDS011;7649;52.084;7.478;2023-07-31T02:15:54;1.23;;;1.13;;
15096;SDS011;7649;52.084;7.478;2023-07-31T02:18:22;1.73;;;1.10;;
15096;SDS011;7649;52.084;7.478;2023-07-31T02:20:51;3.73;;;0.73;;
15096;SDS011;7649;52.084;7.478;2023-07-31T02:23:19;1.00;;;1.00;;
15096;SDS011;7649;52.084;7.478;2023-07-31T02:25:47;0.60;;;0.60;;
15096;SDS011;7649;52.084;7.478;2023-07-31T02:28:16;2.60;;;1.23;;
15096;SDS011;7649;52.084;7.478;2023-07-31T02:30:44;2.50;;;2.10;;
15096;SDS011;7649;52.084;7.478;2023-07-31T02:33:14;5.40;;;2.87;;
15096;SDS011;7649;52.084;7.478;2023-07-31T02:35:43;5.47;;;3.83;;
15096;SDS011;7649;52.084;7.478;2023-07-31T02:38:11;9.23;;;5.37;;
15096;SDS011;7649;52.084;7.478;2023-07-31T02:40:39;9.67;;;5.90;;
15096;SDS011;7649;52.084;7.478;2023-07-31T02:43:08;11.10;;;6.70;;
15096;SDS011;7649;52.084;7.478;2023-07-31T02:45:36;11.83;;;7.67;;
15096;SDS011;7649;52.084;7.478;2023-07-31T02:48:05;11.57;;;8.60;;
15096;SDS011;7649;52.084;7.478;2023-07-31T02:50:34;15.30;;;9.37;;
15096;SDS011;7649;52.084;7.478;2023-07-31T02:53:03;16.93;;;9.63;;
15096;SDS011;7649;52.084;7.478;2023-07-31T02:55:31;19.10;;;10.33;;
15096;SDS011;7649;52.084;7.478;2023-07-31T02:58:00;18.63;;;10.33;;
15096;SDS011;7649;52.084;7.478;2023-07-31T03:00:28;25.77;;;10.53;;
15096;SDS011;7649;52.084;7.478;2023-07-31T03:02:56;22.43;;;10.87;;
15096;SDS011;7649;52.084;7.478;2023-07-31T03:05:25;23.77;;;11.20;;
15096;SDS011;7649;52.084;7.478;2023-07-31T03:07:55;18.17;;;10.33;;
15096;SDS011;7649;52.084;7.478;2023-07-31T03:10:23;23.50;;;11.27;;
15096;SDS011;7649;52.084;7.478;2023-07-31T03:12:52;24.47;;;11.33;;
15096;SDS011;7649;52.084;7.478;2023-07-31T03:15:20;26.23;;;10.87;;
15096;SDS011;7649;52.084;7.478;2023-07-31T03:17:48;19.50;;;9.73;;
15096;SDS011;7649;52.084;7.478;2023-07-31T03:20:17;21.03;;;10.27;;
15096;SDS011;7649;52.084;7.478;2023-07-31T03:22:45;19.63;;;10.00;;
15096;SDS011;7649;52.084;7.478;2023-07-31T03:25:15;18.97;;;10.37;;
15096;SDS011;7649;52.084;7.478;2023-07-31T03:27:43;22.17;;;9.73;;
15096;SDS011;7649;52.084;7.478;2023-07-31T03:30:12;18.40;;;9.57;;
15096;SDS011;7649;52.084;7.478;2023-07-31T03:32:40;15.33;;;8.97;;
15096;SDS011;7649;52.084;7.478;2023-07-31T03:35:08;19.83;;;9.07;;
15096;SDS011;7649;52.084;7.478;2023-07-31T03:37:37;18.23;;;9.70;;
15096;SDS011;7649;52.084;7.478;2023-07-31T03:40:05;18.60;;;8.57;;
15096;SDS011;7649;52.084;7.478;2023-07-31T03:42:35;19.47;;;8.73;;
15096;SDS011;7649;52.084;7.478;2023-07-31T03:45:04;15.03;;;7.77;;
15096;SDS011;7649;52.084;7.478;2023-07-31T03:47:33;14.90;;;8.00;;
15096;SDS011;7649;52.084;7.478;2023-07-31T03:50:01;16.60;;;8.23;;
15096;SDS011;7649;52.084;7.478;2023-07-31T03:52:29;15.57;;;7.80;;
15096;SDS011;7649;52.084;7.478;2023-07-31T03:54:58;13.13;;;7.80;;
15096;SDS011;7649;52.084;7.478;2023-07-31T03:57:26;15.03;;;7.10;;
15096;SDS011;7649;52.084;7.478;2023-07-31T03:59:56;15.77;;;7.97;;
15096;SDS011;7649;52.084;7.478;2023-07-31T04:02:24;14.80;;;8.00;;
15096;SDS011;7649;52.084;7.478;2023-07-31T04:04:53;15.73;;;7.90;;
15096;SDS011;7649;52.084;7.478;2023-07-31T04:07:21;15.10;;;7.67;;
15096;SDS011;7649;52.084;7.478;2023-07-31T04:09:49;17.67;;;8.00;;
15096;SDS011;7649;52.084;7.478;2023-07-31T04:12:17;19.67;;;8.00;;
15096;SDS011;7649;52.084;7.478;2023-07-31T04:14:46;18.10;;;8.03;;
15096;SDS011;7649;52.084;7.478;2023-07-31T04:17:15;15.10;;;7.37;;
15096;SDS011;7649;52.084;7.478;2023-07-31T04:19:45;16.83;;;8.13;;
15096;SDS011;7649;52.084;7.478;2023-07-31T04:22:13;17.97;;;8.53;;
15096;SDS011;7649;52.084;7.478;2023-07-31T04:24:42;12.93;;;7.70;;
15096;SDS011;7649;52.084;7.478;2023-07-31T04:27:10;22.30;;;8.30;;
15096;SDS011;7649;52.084;7.478;2023-07-31T04:29:38;18.77;;;8.70;;
15096;SDS011;7649;52.084;7.478;2023-07-31T04:32:09;16.43;;;7.40;;
15096;SDS011;7649;52.084;7.478;2023-07-31T04:34:39;17.73;;;7.77;;
15096;SDS011;7649;52.084;7.478;2023-07-31T04:37:07;16.67;;;7.33;;
15096;SDS011;7649;52.084;7.478;2023-07-31T04:39:35;12.47;;;7.60;;
15096;SDS011;7649;52.084;7.478;2023-07-31T04:42:04;18.13;;;7.87;;
15096;SDS011;7649;52.084;7.478;2023-07-31T04:44:32;15.33;;;7.47;;
15096;SDS011;7649;52.084;7.478;2023-07-31T04:47:01;14.53;;;7.47;;
15096;SDS011;7649;52.084;7.478;2023-07-31T04:49:29;12.77;;;6.83;;
15096;SDS011;7649;52.084;7.478;2023-07-31T04:51:59;15.87;;;8.07;;
15096;SDS011;7649;52.084;7.478;2023-07-31T04:54:27;13.97;;;7.00;;
15096;SDS011;7649;52.084;7.478;2023-07-31T04:56:55;16.43;;;7.30;;
15096;SDS011;7649;52.084;7.478;2023-07-31T04:59:23;16.17;;;7.60;;
15096;SDS011;7649;52.084;7.478;2023-07-31T05:01:52;11.13;;;6.33;;
15096;SDS011;7649;52.084;7.478;2023-07-31T05:04:20;13.50;;;7.00;;
15096;SDS011;7649;52.084;7.478;2023-07-31T05:06:48;13.63;;;6.63;;
15096;SDS011;7649;52.084;7.478;2023-07-31T05:09:18;16.17;;;6.87;;
15096;SDS011;7649;52.084;7.478;2023-07-31T05:11:47;14.87;;;6.57;;
15096;SDS011;7649;52.084;7.478;2023-07-31T05:14:15;13.00;;;6.63;;
15096;SDS011;7649;52.084;7.478;2023-07-31T05:16:43;15.33;;;6.90;;
15096;SDS011;7649;52.084;7.478;2023-07-31T05:19:14;15.23;;;6.87;;
15096;SDS011;7649;52.084;7.478;2023-07-31T05:21:42;15.20;;;7.27;;
15096;SDS011;7649;52.084;7.478;2023-07-31T05:24:10;18.47;;;6.70;;
15096;SDS011;7649;52.084;7.478;2023-07-31T05:26:40;20.33;;;7.37;;
15096;SDS011;7649;52.084;7.478;2023-07-31T05:29:08;13.77;;;6.13;;
15096;SDS011;7649;52.084;7.478;2023-07-31T05:31:37;14.30;;;6.83;;
15096;SDS011;7649;52.084;7.478;2023-07-31T05:34:05;15.30;;;6.93;;
15096;SDS011;7649;52.084;7.478;2023-07-31T05:36:34;17.97;;;7.13;;
15096;SDS011;7649;52.084;7.478;2023-07-31T05:39:03;14.53;;;6.77;;
15096;SDS011;7649;52.084;7.478;2023-07-31T05:41:35;14.47;;;6.90;;
15096;SDS011;7649;52.084;7.478;2023-07-31T05:44:05;12.13;;;6.60;;
15096;SDS011;7649;52.084;7.478;2023-07-31T05:46:33;14.60;;;6.80;;
15096;SDS011;7649;52.084;7.478;2023-07-31T05:49:02;15.87;;;6.73;;
15096;SDS011;7649;52.084;7.478;2023-07-31T05:51:30;16.07;;;6.53;;
15096;SDS011;7649;52.084;7.478;2023-07-31T05:53:58;16.60;;;6.93;;
15096;SDS011;7649;52.084;7.478;2023-07-31T05:56:27;15.37;;;6.43;;
15096;SDS011;7649;52.084;7.478;2023-07-31T05:58:55;15.17;;;6.20;;
15096;SDS011;7649;52.084;7.478;2023-07-31T06:01:25;16.23;;;6.60;;
15096;SDS011;7649;52.084;7.478;2023-07-31T06:03:53;16.00;;;7.00;;
15096;SDS011;7649;52.084;7.478;2023-07-31T06:06:22;15.37;;;6.60;;
15096;SDS011;7649;52.084;7.478;2023-07-31T06:08:50;12.10;;;6.40;;
15096;SDS011;7649;52.084;7.478;2023-07-31T06:11:19;17.47;;;7.33;;
15096;SDS011;7649;52.084;7.478;2023-07-31T06:13:48;15.30;;;6.57;;
15096;SDS011;7649;52.084;7.478;2023-07-31T06:16:16;16.70;;;6.60;;
15096;SDS011;7649;52.084;7.478;2023-07-31T06:18:46;15.80;;;7.03;;
15096;SDS011;7649;52.084;7.478;2023-07-31T06:21:14;16.57;;;6.50;;
15096;SDS011;7649;52.084;7.478;2023-07-31T06:23:42;16.67;;;7.07;;
15096;SDS011;7649;52.084;7.478;2023-07-31T06:26:11;14.40;;;7.17;;
15096;SDS011;7649;52.084;7.478;2023-07-31T06:28:39;17.77;;;6.67;;
15096;SDS011;7649;52.084;7.478;2023-07-31T06:31:08;12.10;;;6.10;;
15096;SDS011;7649;52.084;7.478;2023-07-31T06:33:36;15.10;;;6.47;;
15096;SDS011;7649;52.084;7.478;2023-07-31T06:36:06;12.37;;;6.63;;
15096;SDS011;7649;52.084;7.478;2023-07-31T06:38:34;14.67;;;6.50;;
15096;SDS011;7649;52.084;7.478;2023-07-31T06:41:03;14.70;;;6.40;;
15096;SDS011;7649;52.084;7.478;2023-07-31T06:43:34;12.30;;;6.10;;
15096;SDS011;7649;52.084;7.478;2023-07-31T06:46:04;12.10;;;5.93;;
15096;SDS011;7649;52.084;7.478;2023-07-31T06:48:33;14.27;;;6.00;;
15096;SDS011;7649;52.084;7.478;2023-07-31T06:51:03;16.30;;;6.40;;
15096;SDS011;7649;52.084;7.478;2023-07-31T06:53:32;9.80;;;5.73;;
15096;SDS011;7649;52.084;7.478;2023-07-31T06:56:01;10.87;;;6.00;;
15096;SDS011;7649;52.084;7.478;2023-07-31T06:58:30;13.67;;;5.83;;
15096;SDS011;7649;52.084;7.478;2023-07-31T07:00:58;14.97;;;5.83;;
15096;SDS011;7649;52.084;7.478;2023-07-31T07:03:27;11.40;;;5.90;;
15096;SDS011;7649;52.084;7.478;2023-07-31T07:05:55;14.03;;;5.80;;
15096;SDS011;7649;52.084;7.478;2023-07-31T07:08:24;16.13;;;6.20;;
15096;SDS011;7649;52.084;7.478;2023-07-31T07:10:54;10.27;;;5.67;;
15096;SDS011;7649;52.084;7.478;2023-07-31T07:13:22;12.93;;;6.13;;
15096;SDS011;7649;52.084;7.478;2023-07-31T07:15:51;9.60;;;5.47;;
15096;SDS011;7649;52.084;7.478;2023-07-31T07:18:21;9.00;;;5.93;;
15096;SDS011;7649;52.084;7.478;2023-07-31T07:20:51;11.73;;;5.50;;
15096;SDS011;7649;52.084;7.478;2023-07-31T07:23:19;11.20;;;5.43;;
15096;SDS011;7649;52.084;7.478;2023-07-31T07:25:48;10.77;;;5.73;;
15096;SDS011;7649;52.084;7.478;2023-07-31T07:28:18;12.20;;;5.27;;
15096;SDS011;7649;52.084;7.478;2023-07-31T07:30:50;8.77;;;5.23;;
15096;SDS011;7649;52.084;7.478;2023-07-31T07:33:19;6.87;;;4.43;;
15096;SDS011;7649;52.084;7.478;2023-07-31T07:35:48;6.43;;;4.80;;
15096;SDS011;7649;52.084;7.478;2023-07-31T07:38:16;6.97;;;5.00;;
15096;SDS011;7649;52.084;7.478;2023-07-31T07:40:45;6.63;;;4.13;;
15096;SDS011;7649;52.084;7.478;2023-07-31T07:43:16;8.47;;;4.33;;
15096;SDS011;7649;52.084;7.478;2023-07-31T07:45:46;4.73;;;3.40;;
15096;SDS011;7649;52.084;7.478;2023-07-31T07:48:15;4.93;;;3.37;;
15096;SDS011;7649;52.084;7.478;2023-07-31T07:50:43;6.80;;;4.03;;
15096;SDS011;7649;52.084;7.478;2023-07-31T07:53:11;5.07;;;3.80;;
15096;SDS011;7649;52.084;7.478;2023-07-31T07:55:40;5.67;;;3.40;;
15096;SDS011;7649;52.084;7.478;2023-07-31T07:58:08;4.13;;;3.27;;
15096;SDS011;7649;52.084;7.478;2023-07-31T08:00:37;6.67;;;2.90;;
15096;SDS011;7649;52.084;7.478;2023-07-31T08:03:06;4.60;;;3.10;;
15096;SDS011;7649;52.084;7.478;2023-07-31T08:05:36;3.50;;;2.70;;
15096;SDS011;7649;52.084;7.478;2023-07-31T08:08:04;4.13;;;3.00;;
15096;SDS011;7649;52.084;7.478;2023-07-31T08:10:33;4.23;;;2.70;;
15096;SDS011;7649;52.084;7.478;2023-07-31T08:13:01;2.60;;;2.40;;
15096;SDS011;7649;52.084;7.478;2023-07-31T08:15:30;3.03;;;2.33;;
15096;SDS011;7649;52.084;7.478;2023-07-31T08:17:58;3.03;;;2.37;;
15096;SDS011;7649;52.084;7.478;2023-07-31T08:20:28;2.97;;;2.30;;
15096;SDS011;7649;52.084;7.478;2023-07-31T08:22:56;2.20;;;2.10;;
15096;SDS011;7649;52.084;7.478;2023-07-31T08:25:25;2.30;;;2.10;;
15096;SDS011;7649;52.084;7.478;2023-07-31T08:27:53;2.30;;;2.20;;
15096;SDS011;7649;52.084;7.478;2023-07-31T08:30:22;2.10;;;1.90;;
15096;SDS011;7649;52.084;7.478;2023-07-31T08:32:50;2.30;;;2.10;;
15096;SDS011;7649;52.084;7.478;2023-07-31T08:35:19;2.90;;;2.07;;
15096;SDS011;7649;52.084;7.478;2023-07-31T08:37:49;3.30;;;2.30;;
15096;SDS011;7649;52.084;7.478;2023-07-31T08:40:17;2.93;;;2.43;;
15096;SDS011;7649;52.084;7.478;2023-07-31T08:42:46;2.30;;;2.20;;
15096;SDS011;7649;52.084;7.478;2023-07-31T08:45:15;2.10;;;2.00;;
15096;SDS011;7649;52.084;7.478;2023-07-31T08:47:44;3.53;;;2.33;;
15096;SDS011;7649;52.084;7.478;2023-07-31T08:50:14;2.70;;;2.50;;
15096;SDS011;7649;52.084;7.478;2023-07-31T08:52:43;2.43;;;2.30;;
15096;SDS011;7649;52.084;7.478;2023-07-31T08:55:15;2.40;;;2.20;;
15096;SDS011;7649;52.084;7.478;2023-07-31T08:57:44;2.40;;;2.20;;
15096;SDS011;7649;52.084;7.478;2023-07-31T09:00:14;3.67;;;2.00;;
15096;SDS011;7649;52.084;7.478;2023-07-31T09:02:43;2.53;;;1.97;;
15096;SDS011;7649;52.084;7.478;2023-07-31T09:05:13;2.03;;;1.80;;
15096;SDS011;7649;52.084;7.478;2023-07-31T09:07:42;2.20;;;1.80;;
15096;SDS011;7649;52.084;7.478;2023-07-31T09:10:14;1.80;;;1.70;;
15096;SDS011;7649;52.084;7.478;2023-07-31T09:12:43;2.17;;;1.93;;
15096;SDS011;7649;52.084;7.478;2023-07-31T09:15:12;1.80;;;1.70;;
15096;SDS011;7649;52.084;7.478;2023-07-31T09:18:01;3.50;;;2.30;;
15096;SDS011;7649;52.084;7.478;2023-07-31T09:20:30;2.33;;;2.10;;
15096;SDS011;7649;52.084;7.478;2023-07-31T09:23:04;1.97;;;1.87;;
15096;SDS011;7649;52.084;7.478;2023-07-31T09:25:39;2.00;;;1.90;;
15096;SDS011;7649;52.084;7.478;2023-07-31T09:28:08;2.73;;;1.90;;
15096;SDS011;7649;52.084;7.478;2023-07-31T09:30:47;2.37;;;2.17;;
15096;SDS011;7649;52.084;7.478;2023-07-31T09:33:15;2.10;;;1.90;;
15096;SDS011;7649;52.084;7.478;2023-07-31T09:35:44;2.70;;;2.20;;
15096;SDS011;7649;52.084;7.478;2023-07-31T09:38:13;3.03;;;2.30;;
15096;SDS011;7649;52.084;7.478;2023-07-31T09:40:44;2.43;;;1.90;;
15096;SDS011;7649;52.084;7.478;2023-07-31T09:43:13;2.70;;;2.20;;
15096;SDS011;7649;52.084;7.478;2023-07-31T09:45:42;2.60;;;2.40;;
15096;SDS011;7649;52.084;7.478;2023-07-31T09:48:12;2.40;;;2.20;;
15096;SDS011;7649;52.084;7.478;2023-07-31T09:50:44;2.47;;;2.27;;
15096;SDS011;7649;52.084;7.478;2023-07-31T09:53:13;2.00;;;1.90;;
15096;SDS011;7649;52.084;7.478;2023-07-31T09:55:43;2.70;;;2.20;;
15096;SDS011;7649;52.084;7.478;2023-07-31T09:58:11;2.50;;;2.30;;
15096;SDS011;7649;52.084;7.478;2023-07-31T10:00:42;5.80;;;2.67;;
15096;SDS011;7649;52.084;7.478;2023-07-31T10:03:11;2.87;;;2.30;;
15096;SDS011;7649;52.084;7.478;2023-07-31T10:05:40;2.20;;;2.10;;
15096;SDS011;7649;52.084;7.478;2023-07-31T10:08:09;2.83;;;2.00;;
15096;SDS011;7649;52.084;7.478;2023-07-31T10:10:39;2.10;;;2.00;;
15096;SDS011;7649;52.084;7.478;2023-07-31T10:13:10;2.10;;;1.87;;
15096;SDS011;7649;52.084;7.478;2023-07-31T10:15:39;2.17;;;2.07;;
15096;SDS011;7649;52.084;7.478;2023-07-31T10:18:10;2.20;;;2.00;;
15096;SDS011;7649;52.084;7.478;2023-07-31T10:20:38;2.07;;;1.87;;
15096;SDS011;7649;52.084;7.478;2023-07-31T10:23:07;2.43;;;2.10;;
15096;SDS011;7649;52.084;7.478;2023-07-31T10:25:35;1.90;;;1.80;;
15096;SDS011;7649;52.084;7.478;2023-07-31T10:28:05;1.83;;;1.70;;
15096;SDS011;7649;52.084;7.478;2023-07-31T10:30:35;2.17;;;1.83;;
15096;SDS011;7649;52.084;7.478;2023-07-31T10:33:04;1.97;;;1.87;;
15096;SDS011;7649;52.084;7.478;2023-07-31T10:35:33;2.60;;;1.90;;
15096;SDS011;7649;52.084;7.478;2023-07-31T10:38:11;3.07;;;2.03;;
15096;SDS011;7649;52.084;7.478;2023-07-31T10:40:40;2.80;;;1.90;;
15096;SDS011;7649;52.084;7.478;2023-07-31T10:43:08;2.30;;;2.10;;
15096;SDS011;7649;52.084;7.478;2023-07-31T10:45:39;2.10;;;2.00;;
15096;SDS011;7649;52.084;7.478;2023-07-31T10:48:12;4.10;;;2.07;;
15096;SDS011;7649;52.084;7.478;2023-07-31T10:50:46;4.30;;;2.10;;
15096;SDS011;7649;52.084;7.478;2023-07-31T10:53:22;3.93;;;2.00;;
15096;SDS011;7649;52.084;7.478;2023-07-31T10:55:50;2.60;;;2.40;;
15096;SDS011;7649;52.084;7.478;2023-07-31T10:58:19;2.10;;;2.00;;
15096;SDS011;7649;52.084;7.478;2023-07-31T11:00:50;2.40;;;2.20;;
15096;SDS011;7649;52.084;7.478;2023-07-31T11:03:24;2.30;;;2.10;;
15096;SDS011;7649;52.084;7.478;2023-07-31T11:05:59;3.03;;;2.20;;
15096;SDS011;7649;52.084;7.478;2023-07-31T11:08:30;2.37;;;2.07;;
15096;SDS011;7649;52.084;7.478;2023-07-31T11:11:04;2.10;;;2.00;;
15096;SDS011;7649;52.084;7.478;2023-07-31T11:13:33;3.47;;;2.20;;
15096;SDS011;7649;52.084;7.478;2023-07-31T11:16:05;2.23;;;2.03;;
15096;SDS011;7649;52.084;7.478;2023-07-31T11:18:38;2.60;;;2.40;;
15096;SDS011;7649;52.084;7.478;2023-07-31T11:21:11;2.13;;;1.93;;
15096;SDS011;7649;52.084;7.478;2023-07-31T11:23:45;2.50;;;2.30;;
15096;SDS011;7649;52.084;7.478;2023-07-31T11:26:14;2.57;;;2.10;;
15096;SDS011;7649;52.084;7.478;2023-07-31T11:28:46;2.73;;;2.40;;
15096;SDS011;7649;52.084;7.478;2023-07-31T11:31:17;3.37;;;2.30;;
15096;SDS011;7649;52.084;7.478;2023-07-31T11:33:47;2.50;;;2.30;;
15096;SDS011;7649;52.084;7.478;2023-07-31T11:36:15;3.57;;;2.50;;
15096;SDS011;7649;52.084;7.478;2023-07-31T11:38:44;2.30;;;2.20;;
15096;SDS011;7649;52.084;7.478;2023-07-31T11:41:13;2.37;;;2.20;;
15096;SDS011;7649;52.084;7.478;2023-07-31T11:43:44;2.70;;;2.60;;
15096;SDS011;7649;52.084;7.478;2023-07-31T11:46:14;2.87;;;2.67;;
15096;SDS011;7649;52.084;7.478;2023-07-31T11:48:50;3.17;;;2.60;;
15096;SDS011;7649;52.084;7.478;2023-07-31T11:51:18;3.10;;;2.80;;
15096;SDS011;7649;52.084;7.478;2023-07-31T11:53:51;3.07;;;2.87;;
15096;SDS011;7649;52.084;7.478;2023-07-31T11:56:20;4.23;;;3.10;;
15096;SDS011;7649;52.084;7.478;2023-07-31T11:58:50;3.30;;;3.10;;
15096;SDS011;7649;52.084;7.478;2023-07-31T12:01:22;2.77;;;2.57;;
15096;SDS011;7649;52.084;7.478;2023-07-31T12:03:53;4.13;;;3.67;;
15096;SDS011;7649;52.084;7.478;2023-07-31T12:06:22;4.10;;;3.70;;
15096;SDS011;7649;52.084;7.478;2023-07-31T12:09:00;4.57;;;4.00;;
15096;SDS011;7649;52.084;7.478;2023-07-31T12:11:29;5.43;;;4.20;;
15096;SDS011;7649;52.084;7.478;2023-07-31T12:13:57;5.10;;;4.60;;
15096;SDS011;7649;52.084;7.478;2023-07-31T12:16:28;5.00;;;4.60;;
15096;SDS011;7649;52.084;7.478;2023-07-31T12:18:58;5.50;;;5.10;;
15096;SDS011;7649;52.084;7.478;2023-07-31T12:21:26;5.87;;;5.37;;
15096;SDS011;7649;52.084;7.478;2023-07-31T12:23:55;6.30;;;5.80;;
15096;SDS011;7649;52.084;7.478;2023-07-31T12:26:23;5.97;;;5.40;;
15096;SDS011;7649;52.084;7.478;2023-07-31T12:29:02;6.43;;;5.47;;
15096;SDS011;7649;52.084;7.478;2023-07-31T12:31:35;7.07;;;5.80;;
15096;SDS011;7649;52.084;7.478;2023-07-31T12:34:14;9.67;;;6.30;;
15096;SDS011;7649;52.084;7.478;2023-07-31T12:36:43;7.63;;;5.53;;
15096;SDS011;7649;52.084;7.478;2023-07-31T12:39:14;6.50;;;5.50;;
15096;SDS011;7649;52.084;7.478;2023-07-31T12:41:44;6.23;;;5.50;;
15096;SDS011;7649;52.084;7.478;2023-07-31T12:44:12;5.93;;;5.13;;
15096;SDS011;7649;52.084;7.478;2023-07-31T12:46:40;5.10;;;4.63;;
15096;SDS011;7649;52.084;7.478;2023-07-31T12:49:11;6.50;;;5.20;;
15096;SDS011;7649;52.084;7.478;2023-07-31T12:51:40;6.00;;;4.70;;
15096;SDS011;7649;52.084;7.478;2023-07-31T12:54:16;6.17;;;4.50;;
15096;SDS011;7649;52.084;7.478;2023-07-31T12:56:45;8.33;;;4.93;;
15096;SDS011;7649;52.084;7.478;2023-07-31T12:59:14;4.93;;;4.43;;
15096;SDS011;7649;52.084;7.478;2023-07-31T13:01:42;5.18;;;4.68;;
15096;SDS011;7649;52.084;7.478;2023-07-31T13:04:12;4.70;;;4.20;;
15096;SDS011;7649;52.084;7.478;2023-07-31T13:06:41;6.82;;;4.60;;
15096;SDS011;7649;52.084;7.478;2023-07-31T13:09:09;5.63;;;4.88;;
15096;SDS011;7649;52.084;7.478;2023-07-31T13:11:40;6.82;;;4.80;;
15096;SDS011;7649;52.084;7.478;2023-07-31T13:14:20;6.25;;;4.47;;
15096;SDS011;7649;52.084;7.478;2023-07-31T13:16:49;5.15;;;4.72;;
15096;SDS011;7649;52.084;7.478;2023-07-31T13:19:19;4.60;;;4.10;;
15096;SDS011;7649;52.084;7.478;2023-07-31T13:21:47;5.57;;;4.40;;
15096;SDS011;7649;52.084;7.478;2023-07-31T13:24:16;5.87;;;4.57;;
15096;SDS011;7649;52.084;7.478;2023-07-31T13:26:44;4.70;;;4.30;;
15096;SDS011;7649;52.084;7.478;2023-07-31T13:29:13;4.70;;;4.22;;
15096;SDS011;7649;52.084;7.478;2023-07-31T13:31:42;4.95;;;4.53;;
15096;SDS011;7649;52.084;7.478;2023-07-31T13:34:12;5.40;;;4.23;;
15096;SDS011;7649;52.084;7.478;2023-07-31T13:36:43;4.22;;;3.92;;
15096;SDS011;7649;52.084;7.478;2023-07-31T13:39:12;6.82;;;4.30;;
15096;SDS011;7649;52.084;7.478;2023-07-31T13:41:47;4.70;;;4.30;;
15096;SDS011;7649;52.084;7.478;2023-07-31T13:44:16;7.00;;;4.03;;
15096;SDS011;7649;52.084;7.478;2023-07-31T13:46:44;4.20;;;3.80;;
15096;SDS011;7649;52.084;7.478;2023-07-31T13:49:15;6.75;;;3.90;;
15096;SDS011;7649;52.084;7.478;2023-07-31T13:51:45;4.45;;;3.92;;
15096;SDS011;7649;52.084;7.478;2023-07-31T13:54:15;4.05;;;3.70;;
15096;SDS011;7649;52.084;7.478;2023-07-31T13:56:44;5.75;;;3.97;;
15096;SDS011;7649;52.084;7.478;2023-07-31T13:59:13;5.38;;;4.07;;
15096;SDS011;7649;52.084;7.478;2023-07-31T14:01:43;5.43;;;3.63;;
15096;SDS011;7649;52.084;7.478;2023-07-31T14:04:11;5.03;;;4.35;;
15096;SDS011;7649;52.084;7.478;2023-07-31T14:06:39;5.03;;;3.38;;
15096;SDS011;7649;52.084;7.478;2023-07-31T14:09:10;4.28;;;3.60;;
15096;SDS011;7649;52.084;7.478;2023-07-31T14:11:40;3.55;;;3.20;;
15096;SDS011;7649;52.084;7.478;2023-07-31T14:14:10;4.10;;;3.70;;
15096;SDS011;7649;52.084;7.478;2023-07-31T14:16:39;3.95;;;3.60;;
15096;SDS011;7649;52.084;7.478;2023-07-31T14:19:08;5.22;;;3.42;;
15096;SDS011;7649;52.084;7.478;2023-07-31T14:21:36;3.75;;;3.03;;
15096;SDS011;7649;52.084;7.478;2023-07-31T14:24:05;3.10;;;2.80;;
15096;SDS011;7649;52.084;7.478;2023-07-31T14:26:36;4.32;;;3.05;;
15096;SDS011;7649;52.084;7.478;2023-07-31T14:29:05;3.47;;;2.90;;
15096;SDS011;7649;52.084;7.478;2023-07-31T14:31:35;4.25;;;2.80;;
15096;SDS011;7649;52.084;7.478;2023-07-31T14:34:04;5.00;;;3.17;;
15096;SDS011;7649;52.084;7.478;2023-07-31T14:36:39;3.25;;;2.95;;
15096;SDS011;7649;52.084;7.478;2023-07-31T14:39:08;4.50;;;3.10;;
15096;SDS011;7649;52.084;7.478;2023-07-31T14:41:37;4.15;;;2.67;;
15096;SDS011;7649;52.084;7.478;2023-07-31T14:44:06;4.57;;;2.78;;
15096;SDS011;7649;52.084;7.478;2023-07-31T14:46:35;3.22;;;2.90;;
15096;SDS011;7649;52.084;7.478;2023-07-31T14:49:04;3.67;;;3.17;;
15096;SDS011;7649;52.084;7.478;2023-07-31T14:51:33;3.63;;;3.33;;
15096;SDS011;7649;52.084;7.478;2023-07-31T14:54:01;4.05;;;3.20;;
15096;SDS011;7649;52.084;7.478;2023-07-31T14:56:33;3.58;;;3.28;;
15096;SDS011;7649;52.084;7.478;2023-07-31T14:59:03;4.70;;;3.30;;
15096;SDS011;7649;52.084;7.478;2023-07-31T15:01:32;4.68;;;3.72;;
15096;SDS011;7649;52.084;7.478;2023-07-31T15:04:02;5.50;;;3.60;;
15096;SDS011;7649;52.084;7.478;2023-07-31T15:06:30;3.75;;;3.45;;
15096;SDS011;7649;52.084;7.478;2023-07-31T15:08:59;4.10;;;3.67;;
15096;SDS011;7649;52.084;7.478;2023-07-31T15:11:29;4.30;;;3.90;;